Time;durP1;ratioP1;P1;durP2;ratioP2;P2;SDS_P1;SDS_P2;PMS_P1;PMS_P2;Temp;Humidity;BMP_temperature;BMP_pressure;BME280_temperature;BME280_humidity;BME280_pressure;Samples;Min_cycle;Max_cycle;Signal;HPM_P1;HPM_P2
2022/08/12 00:43:28;;;;;;;7.45;5.50;;;;;;;17.49;96.28;98500.39;1810456;79;21349;-59
2022/08/12 00:48:40;;;;;;;7.72;5.20;;;;;;;17.47;96.60;98493.15;1816034;79;21036;-61
2022/08/12 00:51:07;;;;;;;6.62;4.90;;;;;;;17.47;96.73;98490.99;1815696;78;20869;-60
2022/08/12 00:53:34;;;;;;;8.20;5.40;;;;;;;17.45;96.84;98492.65;1816185;79;21404;-60
2022/08/12 00:56:01;;;;;;;6.05;5.35;;;;;;;17.45;96.96;98500.77;1815717;78;20873;-61
2022/08/12 00:58:29;;;;;;;10.70;5.80;;;;;;;17.45;97.02;98508.89;1815782;79;20868;-60
2022/08/12 01:01:02;;;;;;;8.33;5.60;;;;;;;17.44;97.10;98507.33;1815761;79;21104;-60
2022/08/12 01:11:27;;;;;;;8.18;5.22;;;;;;;17.45;97.16;98507.55;1815727;79;21341;-59
2022/08/12 01:11:28;;;;;;;9.63;7.27;;;;;;;17.46;97.59;98509.14;1816145;79;20955;-59
2022/08/12 01:13:56;;;;;;;7.47;6.20;;;;;;;17.48;97.89;98504.20;1815741;79;21113;-60
2022/08/12 01:16:22;;;;;;;7.00;6.12;;;;;;;17.48;98.02;98506.91;1815672;78;21505;-60
2022/08/12 01:18:52;;;;;;;9.25;5.87;;;;;;;17.48;98.26;98510.17;1815734;79;20907;-60
2022/08/12 01:22:03;;;;;;;8.43;6.78;;;;;;;17.48;98.66;98504.20;1816134;78;20912;-60
2022/08/12 01:24:56;;;;;;;7.83;6.37;;;;;;;17.51;98.91;98508.18;1815891;78;20853;-60
2022/08/12 01:27:24;;;;;;;6.95;6.12;;;;;;;17.50;99.20;98511.44;1815879;78;21219;-60
2022/08/12 01:29:52;;;;;;;8.60;5.92;;;;;;;17.50;99.38;98507.95;1816001;79;21376;-59
2022/08/12 01:32:20;;;;;;;9.20;6.20;;;;;;;17.49;99.57;98504.45;1815756;79;20880;-59
2022/08/12 01:35:10;;;;;;;10.98;7.00;;;;;;;17.48;99.88;98494.72;1815815;78;20833;-60
2022/08/12 01:37:56;;;;;;;8.33;6.62;;;;;;;17.44;100.00;98491.08;1816142;79;20931;-60
2022/08/12 01:40:30;;;;;;;8.90;6.22;;;;;;;17.39;100.00;98492.59;1815708;79;21227;-61
2022/08/12 01:43:05;;;;;;;6.90;5.87;;;;;;;17.38;100.00;98499.70;1770248;81;20833;-60
2022/08/12 01:45:33;;;;;;;8.00;5.80;;;;;;;17.37;100.00;98493.48;1771580;80;20943;-60
2022/08/12 01:48:11;;;;;;;6.47;5.85;;;;;;;17.34;100.00;98486.00;1776032;80;21414;-60
2022/08/12 01:51:00;;;;;;;9.15;6.28;;;;;;;17.33;100.00;98491.19;1771235;80;20997;-61
2022/08/12 01:53:32;;;;;;;6.92;5.78;;;;;;;17.34;100.00;98487.90;1759219;81;21379;-61
2022/08/12 01:55:59;;;;;;;7.50;5.80;;;;;;;17.33;100.00;98481.72;1769342;80;20865;-60
2022/08/12 01:59:44;;;;;;;6.35;5.42;;;;;;;17.32;100.00;98484.17;1771790;81;20959;-60
2022/08/12 02:01:06;;;;;;;8.58;5.87;;;;;;;17.31;100.00;98481.22;1768514;81;21363;-60
2022/08/12 02:13:15;;;;;;;6.15;5.30;;;;;;;17.30;100.00;98471.52;1778421;80;21364;-60
2022/08/12 02:16:00;;;;;;;11.18;5.78;;;;;;;17.33;100.00;98464.67;1771454;81;20923;-60
2022/08/12 02:19:05;;;;;;;6.42;5.08;;;;;;;17.34;100.00;98464.34;1782712;80;21366;-59
2022/08/12 02:21:40;;;;;;;5.30;4.80;;;;;;;17.33;100.00;98462.77;1776094;80;21225;-60
2022/08/12 02:24:10;;;;;;;6.65;4.78;;;;;;;17.31;100.00;98464.20;1771657;81;20825;-60
2022/08/12 02:26:39;;;;;;;5.05;4.58;;;;;;;17.33;100.00;98471.44;1771692;81;20912;-60
2022/08/12 02:29:06;;;;;;;5.83;4.47;;;;;;;17.36;100.00;98481.05;1771955;81;21498;-60
2022/08/12 02:31:33;;;;;;;7.85;4.30;;;;;;;17.39;100.00;98483.13;1771800;81;20975;-60
2022/08/12 02:34:00;;;;;;;5.25;3.60;;;;;;;17.39;100.00;98464.16;1771687;81;21237;-60
2022/08/12 02:36:26;;;;;;;6.22;3.83;;;;;;;17.34;100.00;98450.80;1771589;81;20894;-61
2022/08/12 02:38:53;;;;;;;4.08;3.70;;;;;;;17.30;100.00;98446.36;1772092;81;21431;-60
2022/08/12 02:41:20;;;;;;;4.00;3.60;;;;;;;17.25;100.00;98458.16;1771568;80;20923;-58
2022/08/12 02:43:52;;;;;;;3.75;3.20;;;;;;;17.25;100.00;98468.98;1771791;81;20892;-60
2022/08/12 02:46:26;;;;;;;7.22;4.50;;;;;;;17.25;100.00;98477.66;1771703;81;21235;-61
2022/08/12 02:49:14;;;;;;;6.33;4.20;;;;;;;17.27;100.00;98474.86;1771853;81;20877;-61
2022/08/12 02:51:45;;;;;;;6.35;3.80;;;;;;;17.28;100.00;98475.11;1814649;78;20945;-59
2022/08/12 02:54:12;;;;;;;3.85;2.50;;;;;;;17.28;100.00;98468.34;1810815;79;20991;-59
2022/08/12 02:56:41;;;;;;;6.62;3.10;;;;;;;17.22;100.00;98464.20;1810520;79;20933;-59
2022/08/12 02:59:10;;;;;;;5.33;2.40;;;;;;;17.17;100.00;98455.47;1810436;79;21277;-60
2022/08/12 03:01:48;;;;;;;3.60;2.55;;;;;;;17.14;100.00;98452.84;1810712;79;20853;-59
2022/08/12 03:04:35;;;;;;;4.55;2.90;;;;;;;17.14;100.00;98456.91;1810532;79;20865;-60
2022/08/12 03:07:13;;;;;;;3.50;3.02;;;;;;;17.12;100.00;98459.14;1810419;79;20983;-60
2022/08/12 03:09:48;;;;;;;4.22;3.37;;;;;;;17.12;100.00;98453.73;1771994;81;20908;-60
2022/08/12 03:12:16;;;;;;;3.02;2.52;;;;;;;17.08;100.00;98446.80;1771877;81;21711;-61
2022/08/12 03:14:43;;;;;;;4.65;2.90;;;;;;;17.03;100.00;98450.22;1780004;80;21500;-61
2022/08/12 03:17:36;;;;;;;3.85;3.35;;;;;;;17.02;100.00;98454.86;1773778;80;20840;-60
2022/08/12 03:20:05;;;;;;;3.77;3.35;;;;;;;17.01;100.00;98456.52;1772063;80;20923;-60
2022/08/12 03:22:33;;;;;;;3.72;3.42;;;;;;;16.98;100.00;98474.77;1771653;81;20880;-60
2022/08/12 03:25:04;;;;;;;3.87;3.47;;;;;;;16.99;100.00;98477.14;1772106;80;21161;-61
2022/08/12 03:27:31;;;;;;;3.58;3.20;;;;;;;17.01;100.00;98474.91;1771935;80;20832;-61
2022/08/12 03:29:58;;;;;;;4.65;3.45;;;;;;;17.00;100.00;98473.88;1771489;80;20868;-61
2022/08/12 03:32:25;;;;;;;4.60;3.55;;;;;;;17.00;100.00;98473.88;1772745;80;20963;-61
2022/08/12 03:34:53;;;;;;;9.00;3.70;;;;;;;17.00;100.00;98484.13;1771503;80;20841;-60
2022/08/12 03:37:20;;;;;;;5.03;3.87;;;;;;;17.01;100.00;98484.93;1771704;80;21128;-61
2022/08/12 03:39:46;;;;;;;3.87;3.47;;;;;;;17.03;100.00;98484.05;1771944;80;21411;-61
2022/08/12 03:42:22;;;;;;;4.15;3.42;;;;;;;17.06;100.00;98484.77;1772189;80;21427;-61
2022/08/12 04:01:50;;;;;;;4.08;3.40;;;;;;;17.20;100.00;98484.03;1819117;79;20916;-60
2022/08/12 04:04:15;;;;;;;6.90;3.30;;;;;;;17.20;100.00;98473.76;1818899;78;21510;-60
2022/08/12 04:06:46;;;;;;;3.98;3.33;;;;;;;17.19;100.00;98463.52;1818807;78;21018;-60
2022/08/12 04:09:13;;;;;;;4.20;2.60;;;;;;;17.20;100.00;98456.16;1815812;78;20857;-60
2022/08/12 04:14:26;;;;;;;3.27;2.97;;;;;;;17.21;100.00;98455.86;1816048;79;20951;-60
2022/08/12 04:16:53;;;;;;;3.42;3.05;;;;;;;17.24;100.00;98459.25;1815760;79;21106;-60
2022/08/12 04:19:20;;;;;;;3.95;3.58;;;;;;;17.27;100.00;98466.74;1815739;79;20892;-60
2022/08/12 04:21:47;;;;;;;4.08;3.65;;;;;;;17.29;100.00;98471.27;1815895;79;20861;-60
2022/08/12 04:24:14;;;;;;;4.17;3.15;;;;;;;17.32;100.00;98468.48;1815881;79;20956;-60
2022/08/12 04:26:40;;;;;;;3.45;3.10;;;;;;;17.34;100.00;98479.23;1815819;79;20868;-60
2022/08/12 04:29:09;;;;;;;3.37;3.08;;;;;;;17.37;100.00;98482.66;1815880;79;21208;-60
2022/08/12 04:31:41;;;;;;;4.35;3.60;;;;;;;17.40;100.00;98480.66;1815821;78;20909;-60
2022/08/12 04:34:09;;;;;;;5.17;4.42;;;;;;;17.41;100.00;98474.11;1777030;80;21368;-61
2022/08/12 04:36:38;;;;;;;4.25;3.58;;;;;;;17.45;100.00;98469.63;1777018;80;20923;-61
2022/08/12 04:39:06;;;;;;;3.85;3.35;;;;;;;17.45;100.00;98469.63;1776632;80;20958;-61
2022/08/12 04:41:34;;;;;;;4.35;3.60;;;;;;;17.44;100.00;98464.55;1776396;79;21225;-61
2022/08/12 04:44:00;;;;;;;4.17;3.62;;;;;;;17.46;100.00;98469.88;1761782;80;20868;-62
2022/08/12 04:46:27;;;;;;;3.90;3.40;;;;;;;17.47;100.00;98472.84;1757211;80;20844;-64
2022/08/12 04:48:54;;;;;;;4.67;4.00;;;;;;;17.46;100.00;98463.11;1776625;80;20915;-59
2022/08/12 04:51:21;;;;;;;3.80;3.40;;;;;;;17.46;100.00;98465.82;1776778;80;20911;-59
2022/08/12 04:53:47;;;;;;;7.10;3.60;;;;;;;17.44;100.00;98474.83;1776852;80;21288;-61
2022/08/12 04:56:14;;;;;;;4.40;3.75;;;;;;;17.43;100.00;98467.81;1776874;80;20907;-61
2022/08/12 04:58:41;;;;;;;5.92;3.87;;;;;;;17.44;100.00;98466.70;1776510;80;20837;-61
2022/08/12 05:01:08;;;;;;;4.92;3.80;;;;;;;17.44;100.00;98468.06;1775512;80;21568;-61
2022/08/12 05:03:34;;;;;;;4.90;4.05;;;;;;;17.48;100.00;98471.70;1775345;80;21085;-61
2022/08/12 05:06:01;;;;;;;3.95;3.55;;;;;;;17.51;100.00;98458.91;1775478;80;21897;-62
2022/08/12 05:08:28;;;;;;;4.05;3.37;;;;;;;17.51;100.00;98456.20;1775313;80;21070;-62
2022/08/12 05:10:54;;;;;;;5.05;4.25;;;;;;;17.55;100.00;98463.11;1775844;80;20908;-61
2022/08/12 05:13:23;;;;;;;4.35;3.47;;;;;;;17.58;100.00;98486.84;1775978;80;20959;-62
2022/08/12 05:15:50;;;;;;;7.05;4.00;;;;;;;17.61;100.00;98499.19;1776721;80;20908;-61
2022/08/12 05:18:16;;;;;;;4.50;4.10;;;;;;;17.62;100.00;98506.19;1776735;80;21302;-61
2022/08/12 05:20:43;;;;;;;5.40;3.92;;;;;;;17.64;100.00;98521.55;1776783;80;20982;-61
2022/08/12 05:23:15;;;;;;;5.08;4.20;;;;;;;17.66;100.00;98534.79;1777056;80;21403;-61
2022/08/12 05:25:45;;;;;;;5.95;3.92;;;;;;;17.67;100.00;98556.68;1776743;80;20911;-61
2022/08/12 05:28:13;;;;;;;6.08;4.80;;;;;;;17.68;100.00;98556.38;1776607;80;20914;-60
2022/08/12 05:30:41;;;;;;;6.60;5.35;;;;;;;17.68;100.00;98555.58;1776940;80;21661;-60
2022/08/12 05:33:08;;;;;;;6.05;4.97;;;;;;;17.69;100.00;98544.41;1776669;80;20872;-61
2022/08/12 05:35:41;;;;;;;4.28;3.80;;;;;;;17.73;100.00;98544.57;1774519;80;32685;-60
2022/08/12 05:40:55;;;;;;;4.30;3.35;;;;;;;17.68;100.00;98500.05;1776826;80;20959;-60
2022/08/12 05:43:23;;;;;;;4.95;3.62;;;;;;;17.61;100.00;98489.72;1776754;80;21979;-60
2022/08/12 05:45:50;;;;;;;3.40;2.80;;;;;;;17.58;100.00;98471.39;1776866;80;20828;-60
2022/08/12 05:48:16;;;;;;;3.30;2.50;;;;;;;17.58;100.00;98463.82;1776822;80;20959;-59
2022/08/12 05:50:44;;;;;;;4.83;2.72;;;;;;;17.58;100.00;98457.05;1776675;80;20883;-60
2022/08/12 05:53:11;;;;;;;3.65;3.10;;;;;;;17.58;100.00;98459.20;1777123;80;20872;-60
2022/08/12 05:55:37;;;;;;;3.30;3.00;;;;;;;17.63;100.00;98469.06;1776721;80;21108;-60
2022/08/12 05:58:04;;;;;;;3.15;2.75;;;;;;;17.68;100.00;98475.11;1776730;80;20884;-60
2022/08/12 06:00:31;;;;;;;2.85;2.58;;;;;;;17.72;100.00;98474.69;1776709;80;20825;-60
2022/08/12 06:03:01;;;;;;;2.60;2.40;;;;;;;17.78;100.00;98481.28;1776810;80;20932;-60
2022/08/12 06:05:37;;;;;;;2.98;2.67;;;;;;;17.84;100.00;98482.68;1766165;79;21434;-60
2022/08/12 06:08:05;;;;;;;4.25;2.80;;;;;;;17.94;100.00;98469.58;1768211;80;21168;-60
2022/08/12 06:10:33;;;;;;;3.17;2.87;;;;;;;18.04;100.00;98459.70;1745684;82;20959;-60
2022/08/12 06:13:01;;;;;;;3.35;2.92;;;;;;;18.15;100.00;98456.06;1746106;82;20885;-61
2022/08/12 06:15:28;;;;;;;3.20;2.62;;;;;;;18.28;100.00;98446.87;1753428;81;21448;-61
2022/08/12 06:18:10;;;;;;;3.00;2.75;;;;;;;18.35;100.00;98443.09;1754926;81;21470;-61
2022/08/12 06:20:37;;;;;;;2.75;2.55;;;;;;;18.47;100.00;98433.70;1756222;81;21122;-61
2022/08/12 06:23:04;;;;;;;3.30;2.60;;;;;;;18.62;100.00;98434.47;1738150;81;21038;-62
2022/08/12 06:25:33;;;;;;;3.25;2.85;;;;;;;18.78;100.00;98434.64;1756190;81;20878;-62
2022/08/12 06:28:02;;;;;;;3.30;2.77;;;;;;;18.92;100.00;98427.81;1735895;81;20944;-61
2022/08/12 06:30:30;;;;;;;3.25;2.50;;;;;;;19.04;100.00;98425.14;1742379;81;20901;-62
2022/08/12 06:32:56;;;;;;;3.15;2.65;;;;;;;19.17;100.00;98415.68;1751028;81;21117;-61
2022/08/12 07:04:28;;;;;;;3.83;3.20;;;;;;;18.56;100.00;98416.79;1849201;77;20939;-62
2022/08/12 07:06:56;;;;;;;4.97;3.50;;;;;;;18.59;100.00;98419.41;1849987;77;21109;-62
2022/08/12 07:09:25;;;;;;;3.42;3.12;;;;;;;18.66;100.00;98427.80;1849718;77;21368;-62
2022/08/12 07:11:51;;;;;;;6.12;3.25;;;;;;;18.74;100.00;98431.82;1849822;77;20895;-62
2022/08/12 07:14:18;;;;;;;4.05;3.17;;;;;;;18.80;100.00;98424.25;1848729;77;20943;-62
2022/08/12 07:16:55;;;;;;;3.30;2.95;;;;;;;18.89;100.00;98429.83;1847065;77;21022;-62
2022/08/12 07:19:22;;;;;;;3.58;2.98;;;;;;;18.97;100.00;98431.69;1848994;77;21975;-62
2022/08/12 07:21:50;;;;;;;4.00;3.37;;;;;;;19.07;100.00;98429.91;1849940;77;20864;-62
2022/08/12 07:24:17;;;;;;;3.33;3.02;;;;;;;19.16;100.00;98424.94;1847925;77;20947;-62
2022/08/12 07:26:44;;;;;;;4.60;3.67;;;;;;;19.24;100.00;98426.79;1848698;77;21110;-62
2022/08/12 07:29:11;;;;;;;4.05;3.17;;;;;;;19.25;100.00;98426.44;1848412;77;20912;-62
2022/08/12 07:31:38;;;;;;;3.45;2.87;;;;;;;19.21;100.00;98426.09;1840048;77;21099;-62
2022/08/12 07:34:05;;;;;;;4.65;3.08;;;;;;;19.15;100.00;98430.16;1829073;77;20959;-62
2022/08/12 07:36:36;;;;;;;3.83;3.10;;;;;;;19.10;100.00;98425.73;1847159;77;21387;-62
2022/08/12 07:39:01;;;;;;;6.65;3.30;;;;;;;19.04;100.00;98424.34;1839085;77;20920;-61
2022/08/12 07:41:30;;;;;;;4.97;3.90;;;;;;;18.95;100.00;98439.37;1817323;77;20958;-63
2022/08/12 07:44:04;;;;;;;6.42;3.35;;;;;;;18.89;100.00;98458.33;1820340;77;21064;-62
2022/08/12 07:46:35;;;;;;;6.72;3.83;;;;;;;18.85;100.00;98466.11;1817617;77;20948;-60
2022/08/12 07:49:06;;;;;;;5.53;4.00;;;;;;;18.78;100.00;98468.01;1840713;77;20873;-60
2022/08/12 07:51:33;;;;;;;3.87;3.40;;;;;;;18.69;100.00;98501.20;1838972;77;20927;-61
2022/08/12 07:54:00;;;;;;;6.00;4.40;;;;;;;18.67;100.00;98540.09;1821732;77;20995;-62
2022/08/12 07:56:27;;;;;;;7.30;3.55;;;;;;;18.67;100.00;98555.01;1818589;77;21292;-61
2022/08/12 07:58:53;;;;;;;6.25;3.35;;;;;;;18.63;100.00;98529.64;1817038;77;21544;-61
2022/08/12 08:01:21;;;;;;;4.22;3.40;;;;;;;18.54;100.00;98520.77;1813771;77;20841;-59
2022/08/12 08:06:25;;;;;;;4.05;3.12;;;;;;;18.40;100.00;98522.89;1824878;77;21042;-61
2022/08/12 08:08:56;;;;;;;5.03;2.45;;;;;;;18.43;100.00;98511.40;1811441;77;21801;-61
2022/08/12 08:14:09;;;;;;;6.60;2.72;;;;;;;18.41;100.00;98520.43;1765796;78;20897;-61
2022/08/12 08:16:38;;;;;;;4.90;2.60;;;;;;;18.44;100.00;98531.98;1814992;77;21521;-62
2022/08/12 08:19:04;;;;;;;3.95;2.98;;;;;;;18.46;100.00;98529.77;1837267;77;20962;-60
2022/08/12 08:21:34;;;;;;;8.08;2.80;;;;;;;18.46;100.00;98517.56;1765135;79;21254;-61
2022/08/12 08:24:13;;;;;;;2.62;2.33;;;;;;;18.42;100.00;98505.17;1761332;80;22584;-60
2022/08/12 08:26:42;;;;;;;3.17;2.45;;;;;;;18.38;100.00;98496.12;1739188;80;20975;-60
2022/08/12 08:29:11;;;;;;;2.77;2.37;;;;;;;18.34;100.00;98503.88;1762224;79;20987;-61
2022/08/12 08:31:44;;;;;;;3.95;2.47;;;;;;;18.34;100.00;98509.30;1747860;80;20960;-60
2022/08/12 08:34:14;;;;;;;4.47;2.20;;;;;;;18.35;100.00;98509.52;1763920;80;21144;-60
2022/08/12 08:36:40;;;;;;;4.12;2.42;;;;;;;18.32;100.00;98506.91;1760086;80;21111;-60
2022/08/12 08:39:07;;;;;;;3.52;2.40;;;;;;;18.32;100.00;98516.39;1799703;77;21237;-60
2022/08/12 08:44:19;;;;;;;3.33;2.50;;;;;;;18.32;100.00;98523.76;1831550;77;20931;-59
2022/08/12 08:46:48;;;;;;;3.05;2.47;;;;;;;18.36;100.00;98534.17;1820114;77;21717;-59
2022/08/12 08:49:16;;;;;;;2.25;2.05;;;;;;;18.35;100.00;98517.10;1817290;77;21027;-60
2022/08/12 08:51:46;;;;;;;3.47;2.05;;;;;;;18.34;100.00;98522.86;1826399;77;21042;-60
2022/08/12 08:54:12;;;;;;;2.92;2.00;;;;;;;18.33;100.00;98524.77;1822991;77;21005;-61
2022/08/12 08:56:43;;;;;;;6.85;2.17;;;;;;;18.34;100.00;98522.86;1835133;77;21110;-60
2022/08/12 08:59:12;;;;;;;4.50;2.10;;;;;;;18.35;100.00;98512.23;1810408;78;21109;-60
2022/08/12 09:01:39;;;;;;;3.98;2.47;;;;;;;18.33;100.00;98507.70;1761312;80;20970;-61
2022/08/12 09:04:07;;;;;;;2.87;2.10;;;;;;;18.33;100.00;98517.19;1757484;80;21511;-61
2022/08/12 09:06:34;;;;;;;5.45;2.42;;;;;;;18.35;100.00;98504.90;1767750;79;21024;-60
2022/08/12 09:09:04;;;;;;;2.10;1.90;;;;;;;18.40;100.00;98499.84;1792634;78;21046;-61
2022/08/12 09:14:15;;;;;;;3.27;1.90;;;;;;;18.49;100.00;98501.20;1812870;78;26480;-59
2022/08/12 09:16:41;;;;;;;1.98;1.72;;;;;;;18.52;100.00;98499.96;1817741;77;20840;-58
2022/08/12 09:19:09;;;;;;;2.90;2.00;;;;;;;18.53;100.00;98505.63;1742840;80;20929;-60
2022/08/12 09:21:36;;;;;;;2.87;1.80;;;;;;;18.57;100.00;98513.89;1739154;80;20995;-59
2022/08/12 09:24:04;;;;;;;2.00;1.80;;;;;;;18.55;100.00;98508.80;1820222;77;21233;-59
2022/08/12 09:26:31;;;;;;;2.70;1.70;;;;;;;18.53;100.00;98500.20;1812697;77;20998;-58
2022/08/12 09:28:57;;;;;;;2.08;1.87;;;;;;;18.54;100.00;98502.33;1815256;77;20928;-59
2022/08/12 09:31:24;;;;;;;2.20;1.98;;;;;;;18.51;100.00;98499.75;1816710;77;20995;-58
2022/08/12 09:33:50;;;;;;;2.45;2.20;;;;;;;18.49;100.00;98487.05;1809695;77;21045;-59
2022/08/12 09:36:17;;;;;;;2.30;1.80;;;;;;;18.51;100.00;98478.05;1828187;77;21211;-59
2022/08/12 09:38:44;;;;;;;2.47;2.15;;;;;;;18.56;100.00;98484.61;1817202;77;21013;-60
2022/08/12 09:41:13;;;;;;;3.85;2.67;;;;;;;18.61;100.00;98466.78;1840634;77;20994;-59
2022/08/12 09:46:24;;;;;;;4.07;2.77;;;;;;;18.70;100.00;98453.94;1811359;77;21074;-61
2022/08/12 09:48:55;;;;;;;3.10;2.70;;;;;;;18.70;100.00;98459.36;1842042;77;22145;-61
2022/08/12 09:51:26;;;;;;;2.87;2.60;;;;;;;18.76;100.00;98458.05;1819800;77;21449;-60
2022/08/12 09:53:58;;;;;;;2.87;2.50;;;;;;;18.84;100.00;98455.05;1770376;77;20974;-58
2022/08/12 09:56:25;;;;;;;2.95;2.17;;;;;;;18.86;100.00;98440.02;1830507;77;20960;-61
2022/08/12 09:58:53;;;;;;;2.83;2.33;;;;;;;18.85;100.00;98437.06;1843395;77;20959;-61
2022/08/12 10:01:19;;;;;;;3.37;2.50;;;;;;;18.84;100.00;98419.17;1826423;77;21270;-61
2022/08/12 10:03:48;;;;;;;2.55;2.33;;;;;;;18.83;100.00;98420.32;1836036;77;20974;-60
2022/08/12 10:06:15;;;;;;;2.77;2.30;;;;;;;18.84;100.00;98415.11;1838364;77;20967;-61
2022/08/12 10:08:43;;;;;;;2.70;2.50;;;;;;;18.86;100.00;98407.45;1836677;77;20975;-61
2022/08/12 10:13:55;;;;;;;3.08;2.62;;;;;;;18.95;100.00;98408.16;1818453;77;21195;-60
2022/08/12 10:16:30;;;;;;;3.02;2.72;;;;;;;19.00;100.00;98414.73;1829003;77;21017;-60
2022/08/12 10:19:04;;;;;;;3.30;2.67;;;;;;;19.10;100.00;98423.80;1810059;77;20923;-60
2022/08/12 10:21:37;;;;;;;4.78;3.30;;;;;;;19.19;100.00;98416.94;1808864;77;21430;-61
2022/08/12 10:24:17;;;;;;;2.55;2.35;;;;;;;19.28;100.00;98419.55;1823184;77;21372;-60
2022/08/12 10:29:37;;;;;;;3.58;3.27;;;;;;;19.37;100.00;98418.91;1806366;77;21496;-61
2022/08/12 10:32:16;;;;;;;4.25;3.10;;;;;;;19.34;100.00;98418.98;1832652;77;20876;-61
2022/08/12 10:34:42;;;;;;;3.35;3.05;;;;;;;19.32;100.00;98419.09;1840696;77;20869;-61
2022/08/12 10:37:09;;;;;;;3.80;3.22;;;;;;;19.36;100.00;98428.97;1828420;77;20924;-61
2022/08/12 10:39:38;;;;;;;4.35;3.58;;;;;;;19.40;100.00;98420.97;1843231;77;21998;-61
2022/08/12 10:44:55;;;;;;;4.00;3.47;;;;;;;19.38;100.00;98435.45;1805103;79;20841;-61
2022/08/12 10:47:23;;;;;;;3.42;3.12;;;;;;;19.34;100.00;98442.62;1807424;78;20916;-60
2022/08/12 10:49:51;;;;;;;4.15;3.33;;;;;;;19.27;100.00;98439.67;1819197;77;20973;-60
2022/08/12 10:52:18;;;;;;;6.22;4.05;;;;;;;19.20;100.00;98439.42;1828846;77;21165;-63
2022/08/12 10:54:45;;;;;;;5.55;4.00;;;;;;;19.18;100.00;98433.55;1823328;77;20999;-62
2022/08/12 10:57:11;;;;;;;4.83;3.83;;;;;;;19.19;100.00;98428.35;1841048;77;21027;-60
2022/08/12 10:59:38;;;;;;;4.12;3.55;;;;;;;19.23;100.00;98427.91;1824638;77;20970;-59
2022/08/12 11:02:06;;;;;;;4.17;3.42;;;;;;;19.28;100.00;98424.98;1822428;77;20928;-61
2022/08/12 11:04:34;;;;;;;4.72;3.90;;;;;;;19.32;100.00;98419.09;1849126;77;21891;-60
2022/08/12 11:07:02;;;;;;;6.87;3.70;;;;;;;19.38;100.00;98421.88;1812938;77;21383;-60
2022/08/12 11:09:36;;;;;;;3.85;3.42;;;;;;;19.45;100.00;98412.59;1821968;77;20962;-60
2022/08/12 11:12:05;;;;;;;4.17;3.05;;;;;;;19.55;100.00;98407.50;1807444;77;25780;-61
2022/08/12 11:14:34;;;;;;;4.25;3.12;;;;;;;19.70;100.00;98403.33;1837067;77;21394;-61
2022/08/12 11:17:05;;;;;;;2.95;2.65;;;;;;;19.79;100.00;98404.80;1822520;77;21224;-60
2022/08/12 11:19:35;;;;;;;3.27;2.85;;;;;;;19.90;100.00;98398.36;1845899;77;20856;-62
2022/08/12 11:22:03;;;;;;;2.80;2.10;;;;;;;20.01;100.00;98393.23;1822182;77;20996;-62
2022/08/12 11:24:30;;;;;;;2.30;2.10;;;;;;;20.09;100.00;98391.73;1833391;77;20960;-62
2022/08/12 11:26:58;;;;;;;3.55;2.08;;;;;;;20.20;100.00;98391.52;1840132;77;21055;-61
2022/08/12 11:29:26;;;;;;;2.52;1.90;;;;;;;20.32;100.00;98390.72;1811979;77;21046;-62
2022/08/12 11:31:53;;;;;;;3.27;1.90;;;;;;;20.38;100.00;98387.41;1837887;77;20884;-60
2022/08/12 11:34:19;;;;;;;1.75;1.62;;;;;;;20.45;100.00;98394.42;1830561;77;21351;-62
2022/08/12 11:36:54;;;;;;;1.92;1.72;;;;;;;20.55;100.00;98409.47;1829117;77;20891;-62
2022/08/12 11:39:20;;;;;;;3.52;1.72;;;;;;;20.63;99.61;98411.83;1829818;77;21497;-62
2022/08/12 11:41:47;;;;;;;1.80;1.70;;;;;;;20.67;99.17;98424.41;1818116;77;21233;-61
2022/08/12 11:44:13;;;;;;;1.72;1.52;;;;;;;20.71;98.81;98432.66;1840074;77;20845;-61
2022/08/12 11:46:41;;;;;;;2.22;1.65;;;;;;;20.72;98.41;98428.81;1811655;77;21449;-61
2022/08/12 11:49:08;;;;;;;1.92;1.47;;;;;;;20.71;98.13;98427.21;1820552;77;20956;-62
2022/08/12 11:51:36;;;;;;;2.72;1.67;;;;;;;20.72;97.89;98428.81;1836744;77;21051;-62
2022/08/12 11:54:03;;;;;;;2.80;1.45;;;;;;;20.71;97.56;98431.30;1831818;77;21078;-62
2022/08/12 11:56:30;;;;;;;2.37;1.42;;;;;;;20.78;98.10;98429.57;1834050;77;20833;-62
2022/08/12 11:58:57;;;;;;;5.08;1.95;;;;;;;20.88;97.18;98435.09;1772125;80;21018;-62
2022/08/12 12:01:23;;;;;;;5.20;2.10;;;;;;;20.92;97.34;98433.25;1761299;80;20980;-61
2022/08/12 12:03:59;;;;;;;3.45;2.05;;;;;;;20.94;96.57;98428.25;1772510;79;21121;-61
2022/08/12 12:06:26;;;;;;;3.47;2.00;;;;;;;20.94;96.47;98428.25;1816864;78;21224;-61
2022/08/12 12:08:54;;;;;;;5.70;1.87;;;;;;;20.94;96.36;98420.88;1813697;77;20955;-61
2022/08/12 12:11:22;;;;;;;3.05;2.10;;;;;;;21.01;96.41;98423.00;1838494;77;20978;-61
2022/08/12 12:13:58;;;;;;;2.35;2.02;;;;;;;21.05;95.93;98418.49;1832969;77;20952;-61
2022/08/12 12:16:31;;;;;;;2.45;1.90;;;;;;;21.12;95.26;98417.32;1811591;78;20864;-62
2022/08/12 12:18:58;;;;;;;2.90;1.92;;;;;;;21.19;94.34;98413.98;1804233;79;21238;-60
2022/08/12 12:21:24;;;;;;;5.47;1.90;;;;;;;21.26;94.24;98413.61;1811551;77;21025;-63
2022/08/12 12:23:52;;;;;;;2.58;1.95;;;;;;;21.42;94.63;98417.14;1815173;79;20923;-61
2022/08/12 12:26:18;;;;;;;2.22;2.00;;;;;;;21.51;94.72;98412.30;1815413;79;20915;-61
2022/08/12 12:28:45;;;;;;;2.25;2.05;;;;;;;21.51;93.52;98416.95;1835395;77;20967;-61
2022/08/12 12:31:11;;;;;;;3.25;2.30;;;;;;;21.39;93.75;98400.12;1829430;77;21120;-61
2022/08/12 12:33:39;;;;;;;3.98;2.10;;;;;;;21.33;93.97;98401.53;1808505;77;20931;-61
2022/08/12 12:36:07;;;;;;;2.87;1.87;;;;;;;21.27;93.16;98396.11;1811925;79;20971;-61
2022/08/12 12:38:33;;;;;;;1.65;1.55;;;;;;;21.23;93.88;98402.60;1804103;79;20915;-61
2022/08/12 12:41:00;;;;;;;1.98;1.62;;;;;;;21.21;93.61;98400.80;1811214;79;21498;-61
2022/08/12 12:43:26;;;;;;;2.92;1.80;;;;;;;21.16;93.13;98394.25;1816213;77;21070;-60
2022/08/12 12:45:53;;;;;;;1.72;1.52;;;;;;;21.13;93.51;98399.26;1815537;77;20999;-62
2022/08/12 12:48:20;;;;;;;2.62;1.80;;;;;;;21.06;92.40;98401.00;1834470;77;21030;-61
2022/08/12 12:51:22;;;;;;;4.12;1.90;;;;;;;21.03;93.13;98392.92;1789512;79;21472;-61
2022/08/12 12:53:23;;;;;;;2.47;1.60;;;;;;;21.04;93.30;98396.44;1787724;79;20833;-61
2022/08/12 12:55:50;;;;;;;2.42;1.47;;;;;;;21.04;93.92;98401.35;1820891;77;21270;-61
2022/08/12 12:58:16;;;;;;;2.47;1.47;;;;;;;21.03;93.79;98398.37;1824328;77;20923;-61
2022/08/12 13:00:46;;;;;;;1.87;1.50;;;;;;;21.01;93.86;98400.65;1767067;80;20903;-62
2022/08/12 13:03:18;;;;;;;2.22;1.60;;;;;;;21.00;93.71;98401.01;1780522;78;21482;-62
2022/08/12 13:05:41;;;;;;;6.03;1.92;;;;;;;20.94;92.85;98404.55;1744917;82;20849;-61
2022/08/12 13:08:23;;;;;;;2.95;1.70;;;;;;;20.84;92.71;98406.98;1776696;80;21232;-62
2022/08/12 13:10:53;;;;;;;2.58;1.50;;;;;;;20.74;92.69;98406.11;1744206;82;20916;-61
2022/08/12 13:13:21;;;;;;;2.75;1.60;;;;;;;20.63;92.62;98411.27;1759988;80;20886;-62
2022/08/12 13:15:49;;;;;;;1.70;1.40;;;;;;;20.53;91.88;98405.51;1797585;78;21003;-61
2022/08/12 13:18:19;;;;;;;3.17;2.00;;;;;;;20.44;92.68;98405.06;1808063;77;21060;-61
2022/08/12 13:20:46;;;;;;;4.53;2.10;;;;;;;20.40;93.09;98406.90;1829292;77;21312;-62
2022/08/12 13:23:17;;;;;;;5.35;1.90;;;;;;;20.35;93.50;98407.13;1818196;77;20959;-62
2022/08/12 13:25:43;;;;;;;6.65;2.20;;;;;;;20.33;93.80;98395.81;1809924;77;20877;-60
2022/08/12 13:28:21;;;;;;;5.62;2.33;;;;;;;20.33;94.15;98397.17;1768901;80;21319;-61
2022/08/12 13:30:51;;;;;;;4.22;2.10;;;;;;;20.26;93.95;98390.16;1816676;77;20943;-62
2022/08/12 13:33:24;;;;;;;3.50;2.22;;;;;;;20.21;94.45;98392.28;1802100;77;22201;-62
2022/08/12 13:35:49;;;;;;;8.55;2.08;;;;;;;20.21;94.82;98387.64;1809084;78;20911;-62
2022/08/12 13:38:14;;;;;;;3.60;2.02;;;;;;;20.20;94.92;98388.80;1820864;77;21202;-62
2022/08/12 13:40:43;;;;;;;5.22;2.02;;;;;;;20.22;95.33;98383.83;1814984;77;20972;-61
2022/08/12 13:43:14;;;;;;;3.72;1.95;;;;;;;20.21;95.17;98379.48;1812398;77;20998;-61
2022/08/12 13:45:38;;;;;;;2.47;2.08;;;;;;;20.19;95.21;98376.31;1821136;77;21183;-61
2022/08/12 13:48:06;;;;;;;2.33;2.05;;;;;;;20.12;95.70;98376.11;1822453;77;20859;-62
2022/08/12 13:50:40;;;;;;;3.08;2.00;;;;;;;20.11;96.23;98377.27;1832445;77;21220;-61